sensor_id;sensor_type;location;lat;lon;timestamp;temperature;humidity
17092;DHT22;8661;45.700;4.880;2022-08-19T00:00:36;19.00;99.90
17092;DHT22;8661;45.700;4.880;2022-08-19T00:03:03;19.00;99.90
17092;DHT22;8661;45.700;4.880;2022-08-19T00:05:32;19.00;99.90
17092;DHT22;8661;45.700;4.880;2022-08-19T00:07:59;19.00;99.90
17092;DHT22;8661;45.700;4.880;2022-08-19T00:10:26;18.90;99.90
17092;DHT22;8661;45.700;4.880;2022-08-19T00:12:53;18.90;99.90
17092;DHT22;8661;45.700;4.880;2022-08-19T00:15:21;18.90;99.90
17092;DHT22;8661;45.700;4.880;2022-08-19T00:17:48;18.90;99.90
17092;DHT22;8661;45.700;4.880;2022-08-19T00:20:19;18.90;99.90
17092;DHT22;8661;45.700;4.880;2022-08-19T00:22:48;18.90;99.90
17092;DHT22;8661;45.700;4.880;2022-08-19T00:25:15;18.90;99.90
17092;DHT22;8661;45.700;4.880;2022-08-19T00:27:42;18.90;99.90
17092;DHT22;8661;45.700;4.880;2022-08-19T00:30:10;18.90;99.90
17092;DHT22;8661;45.700;4.880;2022-08-19T00:32:38;18.90;99.90
17092;DHT22;8661;45.700;4.880;2022-08-19T00:35:06;18.90;99.90
17092;DHT22;8661;45.700;4.880;2022-08-19T00:37:33;18.80;99.90
17092;DHT22;8661;45.700;4.880;2022-08-19T00:40:04;18.80;99.90
17092;DHT22;8661;45.700;4.880;2022-08-19T00:42:31;18.90;99.90
17092;DHT22;8661;45.700;4.880;2022-08-19T00:44:58;18.90;99.90
17092;DHT22;8661;45.700;4.880;2022-08-19T00:47:25;18.90;99.90
17092;DHT22;8661;45.700;4.880;2022-08-19T00:49:54;18.80;99.90
17092;DHT22;8661;45.700;4.880;2022-08-19T00:52:24;18.80;99.90
17092;DHT22;8661;45.700;4.880;2022-08-19T00:54:55;18.80;99.90
17092;DHT22;8661;45.700;4.880;2022-08-19T00:57:27;18.70;99.90
17092;DHT22;8661;45.700;4.880;2022-08-19T00:59:55;18.70;99.90
17092;DHT22;8661;45.700;4.880;2022-08-19T01:02:23;18.70;99.90
17092;DHT22;8661;45.700;4.880;2022-08-19T01:04:50;18.70;99.90
17092;DHT22;8661;45.700;4.880;2022-08-19T01:07:18;18.70;99.90
17092;DHT22;8661;45.700;4.880;2022-08-19T01:09:44;18.70;99.90
17092;DHT22;8661;45.700;4.880;2022-08-19T01:12:11;18.60;99.90
17092;DHT22;8661;45.700;4.880;2022-08-19T01:14:40;18.60;99.90
17092;DHT22;8661;45.700;4.880;2022-08-19T01:17:09;18.60;99.90
17092;DHT22;8661;45.700;4.880;2022-08-19T01:19:37;18.60;99.90
17092;DHT22;8661;45.700;4.880;2022-08-19T01:22:09;18.60;99.90
17092;DHT22;8661;45.700;4.880;2022-08-19T01:24:38;18.60;99.90
17092;DHT22;8661;45.700;4.880;2022-08-19T01:27:06;18.60;99.90
17092;DHT22;8661;45.700;4.880;2022-08-19T01:29:37;18.60;99.90
17092;DHT22;8661;45.700;4.880;2022-08-19T01:32:05;18.60;99.90
17092;DHT22;8661;45.700;4.880;2022-08-19T01:34:32;18.60;99.90
17092;DHT22;8661;45.700;4.880;2022-08-19T01:37:00;18.60;99.90
17092;DHT22;8661;45.700;4.880;2022-08-19T01:39:33;18.60;99.90
17092;DHT22;8661;45.700;4.880;2022-08-19T01:42:01;18.60;99.90
17092;DHT22;8661;45.700;4.880;2022-08-19T01:44:30;18.50;99.90
17092;DHT22;8661;45.700;4.880;2022-08-19T01:46:57;18.50;99.90
17092;DHT22;8661;45.700;4.880;2022-08-19T01:49:25;18.50;99.90
17092;DHT22;8661;45.700;4.880;2022-08-19T01:51:52;18.60;99.90
17092;DHT22;8661;45.700;4.880;2022-08-19T01:54:21;18.60;99.90
17092;DHT22;8661;45.700;4.880;2022-08-19T01:56:49;18.60;99.90
17092;DHT22;8661;45.700;4.880;2022-08-19T01:59:20;18.60;99.90
17092;DHT22;8661;45.700;4.880;2022-08-19T02:01:49;18.60;99.90
17092;DHT22;8661;45.700;4.880;2022-08-19T02:04:16;18.60;99.90
17092;DHT22;8661;45.700;4.880;2022-08-19T02:06:43;18.60;99.90
17092;DHT22;8661;45.700;4.880;2022-08-19T02:09:10;18.60;99.90
17092;DHT22;8661;45.700;4.880;2022-08-19T02:11:37;18.60;99.90
17092;DHT22;8661;45.700;4.880;2022-08-19T02:14:07;18.60;99.90
17092;DHT22;8661;45.700;4.880;2022-08-19T02:16:35;18.60;99.90
17092;DHT22;8661;45.700;4.880;2022-08-19T02:19:05;18.60;99.90
17092;DHT22;8661;45.700;4.880;2022-08-19T02:21:32;18.70;99.90
17092;DHT22;8661;45.700;4.880;2022-08-19T02:23:59;18.70;99.90
17092;DHT22;8661;45.700;4.880;2022-08-19T02:26:26;18.70;99.90
17092;DHT22;8661;45.700;4.880;2022-08-19T02:28:54;18.70;99.90
17092;DHT22;8661;45.700;4.880;2022-08-19T02:31:23;18.70;99.90
17092;DHT22;8661;45.700;4.880;2022-08-19T02:33:52;18.70;99.90
17092;DHT22;8661;45.700;4.880;2022-08-19T02:36:19;18.70;99.90
17092;DHT22;8661;45.700;4.880;2022-08-19T02:38:46;18.70;99.90
17092;DHT22;8661;45.700;4.880;2022-08-19T02:41:16;18.70;99.90
17092;DHT22;8661;45.700;4.880;2022-08-19T02:43:44;18.70;99.90
17092;DHT22;8661;45.700;4.880;2022-08-19T02:46:13;18.70;99.90
17092;DHT22;8661;45.700;4.880;2022-08-19T02:48:40;18.70;99.90
17092;DHT22;8661;45.700;4.880;2022-08-19T02:51:08;18.70;99.90
17092;DHT22;8661;45.700;4.880;2022-08-19T02:53:35;18.70;99.90
17092;DHT22;8661;45.700;4.880;2022-08-19T02:56:06;18.70;99.90
17092;DHT22;8661;45.700;4.880;2022-08-19T02:58:33;18.70;99.90
17092;DHT22;8661;45.700;4.880;2022-08-19T03:01:00;18.70;99.90
17092;DHT22;8661;45.700;4.880;2022-08-19T03:03:27;18.70;99.90
17092;DHT22;8661;45.700;4.880;2022-08-19T03:06:11;18.70;99.90
17092;DHT22;8661;45.700;4.880;2022-08-19T03:08:40;18.70;99.90
17092;DHT22;8661;45.700;4.880;2022-08-19T03:11:14;18.70;99.90
17092;DHT22;8661;45.700;4.880;2022-08-19T03:13:56;18.70;99.90
17092;DHT22;8661;45.700;4.880;2022-08-19T03:16:28;18.70;99.90
17092;DHT22;8661;45.700;4.880;2022-08-19T03:18:57;18.70;99.90
17092;DHT22;8661;45.700;4.880;2022-08-19T03:21:46;18.70;99.90
17092;DHT22;8661;45.700;4.880;2022-08-19T03:28:13;18.70;99.90
17092;DHT22;8661;45.700;4.880;2022-08-19T03:30:54;18.80;99.90
17092;DHT22;8661;45.700;4.880;2022-08-19T03:33:23;18.80;99.90
17092;DHT22;8661;45.700;4.880;2022-08-19T03:36:00;18.80;99.90
17092;DHT22;8661;45.700;4.880;2022-08-19T03:38:27;18.80;99.90
17092;DHT22;8661;45.700;4.880;2022-08-19T03:40:56;18.80;99.90
17092;DHT22;8661;45.700;4.880;2022-08-19T03:43:30;18.80;99.90
17092;DHT22;8661;45.700;4.880;2022-08-19T03:46:05;18.80;99.90
17092;DHT22;8661;45.700;4.880;2022-08-19T03:48:33;18.80;99.90
17092;DHT22;8661;45.700;4.880;2022-08-19T03:51:02;18.80;99.90
17092;DHT22;8661;45.700;4.880;2022-08-19T03:53:30;18.80;99.90
17092;DHT22;8661;45.700;4.880;2022-08-19T03:55:57;18.90;99.90
17092;DHT22;8661;45.700;4.880;2022-08-19T03:58:26;18.90;99.90
17092;DHT22;8661;45.700;4.880;2022-08-19T04:00:54;18.90;99.90
17092;DHT22;8661;45.700;4.880;2022-08-19T04:03:22;18.90;99.90
17092;DHT22;8661;45.700;4.880;2022-08-19T04:05:50;18.90;99.90
17092;DHT22;8661;45.700;4.880;2022-08-19T04:08:17;18.90;99.90
17092;DHT22;8661;45.700;4.880;2022-08-19T04:11:12;18.90;99.90
17092;DHT22;8661;45.700;4.880;2022-08-19T04:13:42;18.90;99.90
17092;DHT22;8661;45.700;4.880;2022-08-19T04:16:11;18.90;99.90
17092;DHT22;8661;45.700;4.880;2022-08-19T04:18:40;18.90;99.90
17092;DHT22;8661;45.700;4.880;2022-08-19T04:21:15;18.90;99.90
17092;DHT22;8661;45.700;4.880;2022-08-19T04:23:45;18.90;99.90
17092;DHT22;8661;45.700;4.880;2022-08-19T04:26:13;18.90;99.90
17092;DHT22;8661;45.700;4.880;2022-08-19T04:28:41;18.90;99.90
17092;DHT22;8661;45.700;4.880;2022-08-19T04:31:13;18.90;99.90
17092;DHT22;8661;45.700;4.880;2022-08-19T04:33:42;18.90;99.90
17092;DHT22;8661;45.700;4.880;2022-08-19T04:36:24;18.90;99.90
17092;DHT22;8661;45.700;4.880;2022-08-19T04:38:55;18.90;99.90
17092;DHT22;8661;45.700;4.880;2022-08-19T04:41:24;18.90;99.90
17092;DHT22;8661;45.700;4.880;2022-08-19T04:44:09;19.00;99.90
17092;DHT22;8661;45.700;4.880;2022-08-19T04:46:39;18.90;99.90
17092;DHT22;8661;45.700;4.880;2022-08-19T04:49:17;19.00;99.90
17092;DHT22;8661;45.700;4.880;2022-08-19T04:52:08;19.00;99.90
17092;DHT22;8661;45.700;4.880;2022-08-19T04:54:35;19.10;99.90
17092;DHT22;8661;45.700;4.880;2022-08-19T04:57:39;19.10;99.90
17092;DHT22;8661;45.700;4.880;2022-08-19T05:00:09;19.10;99.90
17092;DHT22;8661;45.700;4.880;2022-08-19T05:02:38;19.10;99.90
17092;DHT22;8661;45.700;4.880;2022-08-19T05:08:16;19.10;99.90
17092;DHT22;8661;45.700;4.880;2022-08-19T05:10:46;19.10;99.90
17092;DHT22;8661;45.700;4.880;2022-08-19T05:13:14;19.10;99.90
17092;DHT22;8661;45.700;4.880;2022-08-19T05:15:41;19.10;99.90
17092;DHT22;8661;45.700;4.880;2022-08-19T05:18:10;19.10;99.90
17092;DHT22;8661;45.700;4.880;2022-08-19T05:20:55;19.00;99.90
17092;DHT22;8661;45.700;4.880;2022-08-19T05:23:40;19.10;99.90
17092;DHT22;8661;45.700;4.880;2022-08-19T05:26:08;19.00;99.90
17092;DHT22;8661;45.700;4.880;2022-08-19T05:28:38;18.90;99.90
17092;DHT22;8661;45.700;4.880;2022-08-19T05:31:05;18.90;99.90
17092;DHT22;8661;45.700;4.880;2022-08-19T05:33:51;18.80;99.90
17092;DHT22;8661;45.700;4.880;2022-08-19T05:36:18;18.80;99.90
17092;DHT22;8661;45.700;4.880;2022-08-19T05:42:12;18.90;99.90
17092;DHT22;8661;45.700;4.880;2022-08-19T05:44:42;18.90;99.90
17092;DHT22;8661;45.700;4.880;2022-08-19T05:49:32;18.90;99.90
17092;DHT22;8661;45.700;4.880;2022-08-19T05:50:27;18.90;99.90
17092;DHT22;8661;45.700;4.880;2022-08-19T05:52:54;19.00;99.90
17092;DHT22;8661;45.700;4.880;2022-08-19T05:55:22;19.10;99.90
17092;DHT22;8661;45.700;4.880;2022-08-19T05:57:50;19.10;99.90
17092;DHT22;8661;45.700;4.880;2022-08-19T06:00:17;19.00;99.90
17092;DHT22;8661;45.700;4.880;2022-08-19T06:02:47;19.00;99.90
17092;DHT22;8661;45.700;4.880;2022-08-19T06:05:14;18.90;99.90
17092;DHT22;8661;45.700;4.880;2022-08-19T06:07:41;19.00;99.90
17092;DHT22;8661;45.700;4.880;2022-08-19T06:10:10;19.00;99.90
17092;DHT22;8661;45.700;4.880;2022-08-19T06:12:37;19.00;99.90
17092;DHT22;8661;45.700;4.880;2022-08-19T06:15:12;19.10;99.90
17092;DHT22;8661;45.700;4.880;2022-08-19T06:17:55;19.10;99.90
17092;DHT22;8661;45.700;4.880;2022-08-19T06:20:22;19.20;99.90
17092;DHT22;8661;45.700;4.880;2022-08-19T06:22:49;19.30;99.90
17092;DHT22;8661;45.700;4.880;2022-08-19T06:25:17;19.40;99.90
17092;DHT22;8661;45.700;4.880;2022-08-19T06:27:44;19.40;99.90
17092;DHT22;8661;45.700;4.880;2022-08-19T06:30:13;19.40;99.90
17092;DHT22;8661;45.700;4.880;2022-08-19T06:32:40;19.50;99.90
17092;DHT22;8661;45.700;4.880;2022-08-19T06:35:07;19.60;99.90
17092;DHT22;8661;45.700;4.880;2022-08-19T06:37:35;19.70;99.90
17092;DHT22;8661;45.700;4.880;2022-08-19T06:40:03;19.70;99.90
17092;DHT22;8661;45.700;4.880;2022-08-19T06:42:32;19.70;99.90
17092;DHT22;8661;45.700;4.880;2022-08-19T06:45:00;19.70;99.90
17092;DHT22;8661;45.700;4.880;2022-08-19T06:47:31;19.70;99.90
17092;DHT22;8661;45.700;4.880;2022-08-19T06:50:00;19.80;99.90
17092;DHT22;8661;45.700;4.880;2022-08-19T06:52:28;19.80;99.90
17092;DHT22;8661;45.700;4.880;2022-08-19T06:54:55;19.80;99.90
17092;DHT22;8661;45.700;4.880;2022-08-19T06:57:23;19.80;99.90
17092;DHT22;8661;45.700;4.880;2022-08-19T06:59:50;19.90;99.90
17092;DHT22;8661;45.700;4.880;2022-08-19T07:02:18;19.80;99.90
17092;DHT22;8661;45.700;4.880;2022-08-19T07:04:47;19.70;99.90
17092;DHT22;8661;45.700;4.880;2022-08-19T07:07:17;19.70;99.90
17092;DHT22;8661;45.700;4.880;2022-08-19T07:09:44;19.80;99.90
17092;DHT22;8661;45.700;4.880;2022-08-19T07:12:13;19.90;99.90
17092;DHT22;8661;45.700;4.880;2022-08-19T07:14:43;19.90;99.90
17092;DHT22;8661;45.700;4.880;2022-08-19T07:17:15;20.00;99.90
17092;DHT22;8661;45.700;4.880;2022-08-19T07:19:42;20.10;99.90
17092;DHT22;8661;45.700;4.880;2022-08-19T07:22:10;20.10;99.90
17092;DHT22;8661;45.700;4.880;2022-08-19T07:24:38;20.00;99.90
17092;DHT22;8661;45.700;4.880;2022-08-19T07:27:06;19.70;99.90
17092;DHT22;8661;45.700;4.880;2022-08-19T07:29:36;19.60;99.90
17092;DHT22;8661;45.700;4.880;2022-08-19T07:32:04;19.60;99.90
17092;DHT22;8661;45.700;4.880;2022-08-19T07:34:37;19.50;99.90
17092;DHT22;8661;45.700;4.880;2022-08-19T07:37:21;19.40;99.90
17092;DHT22;8661;45.700;4.880;2022-08-19T07:39:48;19.40;99.90
17092;DHT22;8661;45.700;4.880;2022-08-19T07:42:15;19.40;99.90
17092;DHT22;8661;45.700;4.880;2022-08-19T07:44:43;19.40;99.90
17092;DHT22;8661;45.700;4.880;2022-08-19T07:47:10;19.40;99.90
17092;DHT22;8661;45.700;4.880;2022-08-19T07:49:45;19.40;99.90
17092;DHT22;8661;45.700;4.880;2022-08-19T07:52:16;19.50;99.90
17092;DHT22;8661;45.700;4.880;2022-08-19T07:54:43;19.50;99.90
17092;DHT22;8661;45.700;4.880;2022-08-19T08:00:21;19.40;99.90
17092;DHT22;8661;45.700;4.880;2022-08-19T08:02:52;19.50;99.90
17092;DHT22;8661;45.700;4.880;2022-08-19T08:05:41;19.50;99.90
17092;DHT22;8661;45.700;4.880;2022-08-19T08:08:28;19.60;99.90
17092;DHT22;8661;45.700;4.880;2022-08-19T08:11:13;19.70;99.90
17092;DHT22;8661;45.700;4.880;2022-08-19T08:13:47;19.80;99.90
17092;DHT22;8661;45.700;4.880;2022-08-19T08:16:15;20.00;99.90
17092;DHT22;8661;45.700;4.880;2022-08-19T08:18:46;20.00;99.90
17092;DHT22;8661;45.700;4.880;2022-08-19T08:21:19;20.00;99.90
17092;DHT22;8661;45.700;4.880;2022-08-19T08:23:50;20.00;99.90
17092;DHT22;8661;45.700;4.880;2022-08-19T08:26:20;19.90;99.90
17092;DHT22;8661;45.700;4.880;2022-08-19T08:28:47;19.90;99.90
17092;DHT22;8661;45.700;4.880;2022-08-19T08:31:24;19.80;99.90
17092;DHT22;8661;45.700;4.880;2022-08-19T08:33:54;19.90;99.90
17092;DHT22;8661;45.700;4.880;2022-08-19T08:36:29;19.80;99.90
17092;DHT22;8661;45.700;4.880;2022-08-19T08:39:00;19.70;99.90
17092;DHT22;8661;45.700;4.880;2022-08-19T08:41:34;19.70;99.90
17092;DHT22;8661;45.700;4.880;2022-08-19T08:44:04;19.70;99.90
17092;DHT22;8661;45.700;4.880;2022-08-19T08:46:45;19.70;99.90
17092;DHT22;8661;45.700;4.880;2022-08-19T08:49:29;19.60;99.90
17092;DHT22;8661;45.700;4.880;2022-08-19T08:52:03;19.50;99.90
17092;DHT22;8661;45.700;4.880;2022-08-19T08:54:34;19.50;99.90
17092;DHT22;8661;45.700;4.880;2022-08-19T08:57:06;19.50;99.90
17092;DHT22;8661;45.700;4.880;2022-08-19T08:59:36;19.50;99.90
17092;DHT22;8661;45.700;4.880;2022-08-19T09:02:06;19.50;99.90
17092;DHT22;8661;45.700;4.880;2022-08-19T09:04:34;19.50;99.90
17092;DHT22;8661;45.700;4.880;2022-08-19T09:07:13;19.50;99.90
17092;DHT22;8661;45.700;4.880;2022-08-19T09:09:48;19.50;99.90
17092;DHT22;8661;45.700;4.880;2022-08-19T09:12:21;19.50;99.90
17092;DHT22;8661;45.700;4.880;2022-08-19T09:14:54;19.50;99.90
17092;DHT22;8661;45.700;4.880;2022-08-19T09:17:24;19.50;99.90
17092;DHT22;8661;45.700;4.880;2022-08-19T09:19:58;19.50;99.90
17092;DHT22;8661;45.700;4.880;2022-08-19T09:22:32;19.50;99.90
17092;DHT22;8661;45.700;4.880;2022-08-19T09:25:20;19.60;99.90
17092;DHT22;8661;45.700;4.880;2022-08-19T09:27:48;19.60;99.90
17092;DHT22;8661;45.700;4.880;2022-08-19T09:30:18;19.60;99.90
17092;DHT22;8661;45.700;4.880;2022-08-19T09:32:46;19.60;99.90
17092;DHT22;8661;45.700;4.880;2022-08-19T09:35:14;19.60;99.90
17092;DHT22;8661;45.700;4.880;2022-08-19T09:37:42;19.70;99.90
17092;DHT22;8661;45.700;4.880;2022-08-19T09:40:16;19.70;99.90
17092;DHT22;8661;45.700;4.880;2022-08-19T09:42:46;19.80;99.90
17092;DHT22;8661;45.700;4.880;2022-08-19T09:45:18;20.00;99.90
17092;DHT22;8661;45.700;4.880;2022-08-19T09:47:47;20.30;99.90
17092;DHT22;8661;45.700;4.880;2022-08-19T09:50:14;20.60;99.90
17092;DHT22;8661;45.700;4.880;2022-08-19T09:52:43;20.90;99.90
17092;DHT22;8661;45.700;4.880;2022-08-19T09:55:13;21.30;99.90
17092;DHT22;8661;45.700;4.880;2022-08-19T09:57:41;21.60;99.90
17092;DHT22;8661;45.700;4.880;2022-08-19T10:00:09;21.70;99.90
17092;DHT22;8661;45.700;4.880;2022-08-19T10:02:43;21.70;99.90
17092;DHT22;8661;45.700;4.880;2022-08-19T10:05:10;21.60;99.90
17092;DHT22;8661;45.700;4.880;2022-08-19T10:07:54;21.40;99.90
17092;DHT22;8661;45.700;4.880;2022-08-19T10:10:22;21.30;99.90
17092;DHT22;8661;45.700;4.880;2022-08-19T10:12:52;21.20;99.90
17092;DHT22;8661;45.700;4.880;2022-08-19T10:15:30;21.20;99.90
17092;DHT22;8661;45.700;4.880;2022-08-19T10:17:56;21.20;99.90
17092;DHT22;8661;45.700;4.880;2022-08-19T10:20:25;21.30;99.90
17092;DHT22;8661;45.700;4.880;2022-08-19T10:25:23;21.50;99.90
17092;DHT22;8661;45.700;4.880;2022-08-19T10:30:08;21.60;99.90
17092;DHT22;8661;45.700;4.880;2022-08-19T10:32:37;21.80;99.90
17092;DHT22;8661;45.700;4.880;2022-08-19T10:42:09;22.00;99.90
17092;DHT22;8661;45.700;4.880;2022-08-19T10:44:55;22.30;99.90
17092;DHT22;8661;45.700;4.880;2022-08-19T10:47:45;22.50;99.90
17092;DHT22;8661;45.700;4.880;2022-08-19T10:50:42;22.80;99.90
17092;DHT22;8661;45.700;4.880;2022-08-19T10:53:35;23.10;99.90
17092;DHT22;8661;45.700;4.880;2022-08-19T10:56:11;23.50;99.90
17092;DHT22;8661;45.700;4.880;2022-08-19T10:58:56;23.80;99.90
17092;DHT22;8661;45.700;4.880;2022-08-19T11:01:47;24.00;99.90
17092;DHT22;8661;45.700;4.880;2022-08-19T11:04:56;24.20;99.90
17092;DHT22;8661;45.700;4.880;2022-08-19T11:07:36;24.30;99.90
17092;DHT22;8661;45.700;4.880;2022-08-19T11:10:33;24.40;99.90
17092;DHT22;8661;45.700;4.880;2022-08-19T11:13:20;24.70;99.90
17092;DHT22;8661;45.700;4.880;2022-08-19T11:16:36;25.00;99.90
17092;DHT22;8661;45.700;4.880;2022-08-19T11:19:23;25.30;99.90
17092;DHT22;8661;45.700;4.880;2022-08-19T11:21:53;25.80;99.90
17092;DHT22;8661;45.700;4.880;2022-08-19T11:24:44;26.30;99.90
17092;DHT22;8661;45.700;4.880;2022-08-19T11:27:19;26.90;99.90
17092;DHT22;8661;45.700;4.880;2022-08-19T11:30:29;27.40;99.90
17092;DHT22;8661;45.700;4.880;2022-08-19T11:33:23;27.90;99.90
17092;DHT22;8661;45.700;4.880;2022-08-19T11:36:25;28.70;99.90
17092;DHT22;8661;45.700;4.880;2022-08-19T11:45:48;30.20;99.90
17092;DHT22;8661;45.700;4.880;2022-08-19T11:48:20;30.90;99.90
17092;DHT22;8661;45.700;4.880;2022-08-19T11:54:36;32.00;98.50
17092;DHT22;8661;45.700;4.880;2022-08-19T12:04:08;33.90;91.60
17092;DHT22;8661;45.700;4.880;2022-08-19T12:07:00;34.00;91.40
17092;DHT22;8661;45.700;4.880;2022-08-19T12:16:00;34.60;92.10
17092;DHT22;8661;45.700;4.880;2022-08-19T12:18:38;34.30;99.90
17092;DHT22;8661;45.700;4.880;2022-08-19T12:31:29;30.90;94.50
17092;DHT22;8661;45.700;4.880;2022-08-19T12:33:57;30.60;98.60
17092;DHT22;8661;45.700;4.880;2022-08-19T12:36:25;30.60;99.80
17092;DHT22;8661;45.700;4.880;2022-08-19T12:38:58;30.70;97.70
17092;DHT22;8661;45.700;4.880;2022-08-19T12:41:30;30.70;95.80
17092;DHT22;8661;45.700;4.880;2022-08-19T12:44:02;30.60;94.60
17092;DHT22;8661;45.700;4.880;2022-08-19T12:46:32;30.30;94.10
17092;DHT22;8661;45.700;4.880;2022-08-19T12:49:01;30.20;94.20
17092;DHT22;8661;45.700;4.880;2022-08-19T12:51:30;30.00;94.10
17092;DHT22;8661;45.700;4.880;2022-08-19T12:53:59;30.00;93.60
17092;DHT22;8661;45.700;4.880;2022-08-19T12:56:27;30.10;93.70
17092;DHT22;8661;45.700;4.880;2022-08-19T12:59:02;30.00;93.60
17092;DHT22;8661;45.700;4.880;2022-08-19T13:02:02;29.90;93.60
17092;DHT22;8661;45.700;4.880;2022-08-19T13:04:51;29.90;92.10
17092;DHT22;8661;45.700;4.880;2022-08-19T13:07:53;30.50;92.90
17092;DHT22;8661;45.700;4.880;2022-08-19T13:10:26;30.80;92.20
17092;DHT22;8661;45.700;4.880;2022-08-19T13:12:59;31.00;91.40
17092;DHT22;8661;45.700;4.880;2022-08-19T13:15:38;30.60;90.30
17092;DHT22;8661;45.700;4.880;2022-08-19T13:18:15;30.50;90.70
17092;DHT22;8661;45.700;4.880;2022-08-19T13:20:46;30.90;89.90
17092;DHT22;8661;45.700;4.880;2022-08-19T13:23:47;32.00;88.50
17092;DHT22;8661;45.700;4.880;2022-08-19T13:26:21;31.80;81.30
17092;DHT22;8661;45.700;4.880;2022-08-19T13:28:56;31.30;85.40
17092;DHT22;8661;45.700;4.880;2022-08-19T13:31:43;30.90;87.60
17092;DHT22;8661;45.700;4.880;2022-08-19T13:34:35;31.40;88.50
17092;DHT22;8661;45.700;4.880;2022-08-19T13:37:08;32.10;85.10
17092;DHT22;8661;45.700;4.880;2022-08-19T13:39:41;32.50;83.90
17092;DHT22;8661;45.700;4.880;2022-08-19T13:42:20;32.90;83.50
17092;DHT22;8661;45.700;4.880;2022-08-19T13:48:19;33.10;80.30
17092;DHT22;8661;45.700;4.880;2022-08-19T13:50:54;33.30;81.40
17092;DHT22;8661;45.700;4.880;2022-08-19T13:53:24;33.20;79.30
17092;DHT22;8661;45.700;4.880;2022-08-19T13:55:53;33.30;80.60
17092;DHT22;8661;45.700;4.880;2022-08-19T13:58:23;33.60;80.70
17092;DHT22;8661;45.700;4.880;2022-08-19T14:00:50;33.60;79.00
17092;DHT22;8661;45.700;4.880;2022-08-19T14:03:19;33.70;78.80
17092;DHT22;8661;45.700;4.880;2022-08-19T14:05:47;33.80;78.50
17092;DHT22;8661;45.700;4.880;2022-08-19T14:08:14;33.60;78.50
17092;DHT22;8661;45.700;4.880;2022-08-19T14:10:43;33.40;80.00
17092;DHT22;8661;45.700;4.880;2022-08-19T14:13:16;33.40;80.00
17092;DHT22;8661;45.700;4.880;2022-08-19T14:15:46;32.60;78.80
17092;DHT22;8661;45.700;4.880;2022-08-19T14:18:19;31.80;80.50
17092;DHT22;8661;45.700;4.880;2022-08-19T14:20:46;31.60;81.30
17092;DHT22;8661;45.700;4.880;2022-08-19T14:24:47;31.50;81.10
17092;DHT22;8661;45.700;4.880;2022-08-19T14:26:18;31.20;82.50
17092;DHT22;8661;45.700;4.880;2022-08-19T14:28:47;31.90;81.90
17092;DHT22;8661;45.700;4.880;2022-08-19T14:31:18;32.60;80.30
17092;DHT22;8661;45.700;4.880;2022-08-19T14:34:13;33.10;78.10
17092;DHT22;8661;45.700;4.880;2022-08-19T14:36:40;33.60;73.80
17092;DHT22;8661;45.700;4.880;2022-08-19T14:39:08;34.30;73.60
17092;DHT22;8661;45.700;4.880;2022-08-19T14:41:35;34.70;72.50
17092;DHT22;8661;45.700;4.880;2022-08-19T14:44:03;35.00;70.00
17092;DHT22;8661;45.700;4.880;2022-08-19T14:46:32;34.60;71.20
17092;DHT22;8661;45.700;4.880;2022-08-19T14:48:59;33.60;72.40
17092;DHT22;8661;45.700;4.880;2022-08-19T14:51:29;32.90;74.70
17092;DHT22;8661;45.700;4.880;2022-08-19T14:53:56;34.50;73.90
17092;DHT22;8661;45.700;4.880;2022-08-19T14:56:26;35.30;70.60
17092;DHT22;8661;45.700;4.880;2022-08-19T14:58:54;34.00;71.70
17092;DHT22;8661;45.700;4.880;2022-08-19T15:01:22;32.90;73.30
17092;DHT22;8661;45.700;4.880;2022-08-19T15:03:50;32.00;75.80
17092;DHT22;8661;45.700;4.880;2022-08-19T15:06:18;31.40;79.10
17092;DHT22;8661;45.700;4.880;2022-08-19T15:08:46;30.80;81.40
17092;DHT22;8661;45.700;4.880;2022-08-19T15:11:15;30.40;82.60
17092;DHT22;8661;45.700;4.880;2022-08-19T15:13:43;30.00;83.50
17092;DHT22;8661;45.700;4.880;2022-08-19T15:16:12;29.80;85.70
17092;DHT22;8661;45.700;4.880;2022-08-19T15:18:40;29.50;86.80
17092;DHT22;8661;45.700;4.880;2022-08-19T15:21:10;29.20;86.60
17092;DHT22;8661;45.700;4.880;2022-08-19T15:23:39;28.90;86.90
17092;DHT22;8661;45.700;4.880;2022-08-19T15:26:08;28.60;87.00
17092;DHT22;8661;45.700;4.880;2022-08-19T15:28:36;28.40;87.70
17092;DHT22;8661;45.700;4.880;2022-08-19T15:31:05;28.20;87.50
17092;DHT22;8661;45.700;4.880;2022-08-19T15:33:32;28.40;88.50
17092;DHT22;8661;45.700;4.880;2022-08-19T15:36:02;28.80;87.70
17092;DHT22;8661;45.700;4.880;2022-08-19T15:38:35;29.20;85.90
17092;DHT22;8661;45.700;4.880;2022-08-19T15:41:18;29.30;83.90
17092;DHT22;8661;45.700;4.880;2022-08-19T15:43:55;29.30;81.50
17092;DHT22;8661;45.700;4.880;2022-08-19T15:46:25;29.50;82.90
17092;DHT22;8661;45.700;4.880;2022-08-19T15:48:57;29.60;81.40
17092;DHT22;8661;45.700;4.880;2022-08-19T15:51:46;29.60;81.70
17092;DHT22;8661;45.700;4.880;2022-08-19T15:54:23;29.60;83.00
17092;DHT22;8661;45.700;4.880;2022-08-19T15:56:56;29.50;82.10
17092;DHT22;8661;45.700;4.880;2022-08-19T15:59:40;29.20;82.70
17092;DHT22;8661;45.700;4.880;2022-08-19T16:02:26;28.90;83.20
17092;DHT22;8661;45.700;4.880;2022-08-19T16:05:16;28.50;84.50
17092;DHT22;8661;45.700;4.880;2022-08-19T16:08:01;28.20;83.90
17092;DHT22;8661;45.700;4.880;2022-08-19T16:10:31;28.00;84.50
17092;DHT22;8661;45.700;4.880;2022-08-19T16:13:23;27.80;84.50
17092;DHT22;8661;45.700;4.880;2022-08-19T16:16:05;27.80;85.50
17092;DHT22;8661;45.700;4.880;2022-08-19T16:18:56;27.70;86.30
17092;DHT22;8661;45.700;4.880;2022-08-19T16:21:56;27.70;86.40
17092;DHT22;8661;45.700;4.880;2022-08-19T16:25:09;27.70;86.90
17092;DHT22;8661;45.700;4.880;2022-08-19T16:28:09;27.80;88.00
17092;DHT22;8661;45.700;4.880;2022-08-19T16:34:20;27.80;87.00
17092;DHT22;8661;45.700;4.880;2022-08-19T16:37:12;27.60;86.60
17092;DHT22;8661;45.700;4.880;2022-08-19T16:39:53;27.50;86.70
17092;DHT22;8661;45.700;4.880;2022-08-19T16:42:24;27.40;87.70
17092;DHT22;8661;45.700;4.880;2022-08-19T16:44:52;27.40;88.30
17092;DHT22;8661;45.700;4.880;2022-08-19T16:47:37;27.30;87.90
17092;DHT22;8661;45.700;4.880;2022-08-19T16:50:06;27.30;87.50
17092;DHT22;8661;45.700;4.880;2022-08-19T16:52:33;27.30;87.50
17092;DHT22;8661;45.700;4.880;2022-08-19T16:55:02;27.30;87.30
17092;DHT22;8661;45.700;4.880;2022-08-19T16:57:30;27.30;86.80
17092;DHT22;8661;45.700;4.880;2022-08-19T17:00:21;27.20;86.30
17092;DHT22;8661;45.700;4.880;2022-08-19T17:03:04;27.00;86.60
17092;DHT22;8661;45.700;4.880;2022-08-19T17:05:34;26.90;88.00
17092;DHT22;8661;45.700;4.880;2022-08-19T17:08:07;26.80;87.80
17092;DHT22;8661;45.700;4.880;2022-08-19T17:10:39;26.80;88.00
17092;DHT22;8661;45.700;4.880;2022-08-19T17:13:06;26.80;88.60
17092;DHT22;8661;45.700;4.880;2022-08-19T17:15:42;26.80;89.50
17092;DHT22;8661;45.700;4.880;2022-08-19T17:18:10;26.70;90.20
17092;DHT22;8661;45.700;4.880;2022-08-19T17:20:40;26.60;90.30
17092;DHT22;8661;45.700;4.880;2022-08-19T17:23:08;26.40;90.30
17092;DHT22;8661;45.700;4.880;2022-08-19T17:25:36;26.30;90.20
17092;DHT22;8661;45.700;4.880;2022-08-19T17:28:06;26.20;90.20